sensor_id;sensor_type;location;lat;lon;timestamp;P1;durP1;ratioP1;P2;durP2;ratioP2
49942;SDS011;36011;53.362;58.948;2023-11-21T00:01:06;6.32;;;4.57;;
49942;SDS011;36011;53.362;58.948;2023-11-21T00:04:09;8.97;;;5.60;;
49942;SDS011;36011;53.362;58.948;2023-11-21T00:07:16;10.57;;;4.80;;
49942;SDS011;36011;53.362;58.948;2023-11-21T00:10:22;10.65;;;5.35;;
49942;SDS011;36011;53.362;58.948;2023-11-21T00:13:24;9.90;;;4.80;;
49942;SDS011;36011;53.362;58.948;2023-11-21T00:16:27;8.77;;;4.53;;
49942;SDS011;36011;53.362;58.948;2023-11-21T00:19:29;9.38;;;4.60;;
49942;SDS011;36011;53.362;58.948;2023-11-21T00:22:30;8.38;;;4.93;;
49942;SDS011;36011;53.362;58.948;2023-11-21T00:25:36;7.78;;;5.20;;
49942;SDS011;36011;53.362;58.948;2023-11-21T00:28:37;8.18;;;4.90;;
49942;SDS011;36011;53.362;58.948;2023-11-21T00:31:41;6.88;;;4.50;;
49942;SDS011;36011;53.362;58.948;2023-11-21T00:34:48;9.02;;;5.00;;
49942;SDS011;36011;53.362;58.948;2023-11-21T00:37:52;10.25;;;4.90;;
49942;SDS011;36011;53.362;58.948;2023-11-21T00:40:59;11.93;;;4.97;;
49942;SDS011;36011;53.362;58.948;2023-11-21T00:44:03;5.22;;;4.03;;
49942;SDS011;36011;53.362;58.948;2023-11-21T00:47:08;9.48;;;4.55;;
49942;SDS011;36011;53.362;58.948;2023-11-21T00:50:14;9.02;;;4.65;;
49942;SDS011;36011;53.362;58.948;2023-11-21T00:53:19;9.38;;;5.22;;
49942;SDS011;36011;53.362;58.948;2023-11-21T00:56:26;8.52;;;5.10;;
49942;SDS011;36011;53.362;58.948;2023-11-21T00:59:29;10.32;;;4.53;;
49942;SDS011;36011;53.362;58.948;2023-11-21T01:02:31;7.28;;;4.50;;
49942;SDS011;36011;53.362;58.948;2023-11-21T01:05:38;9.45;;;4.97;;
49942;SDS011;36011;53.362;58.948;2023-11-21T01:08:43;8.20;;;4.80;;
49942;SDS011;36011;53.362;58.948;2023-11-21T01:11:47;7.93;;;4.60;;
49942;SDS011;36011;53.362;58.948;2023-11-21T01:14:48;9.23;;;4.72;;
49942;SDS011;36011;53.362;58.948;2023-11-21T01:17:50;10.80;;;4.93;;
49942;SDS011;36011;53.362;58.948;2023-11-21T01:20:54;8.85;;;5.53;;
49942;SDS011;36011;53.362;58.948;2023-11-21T01:24:03;11.43;;;5.43;;
49942;SDS011;36011;53.362;58.948;2023-11-21T01:27:06;9.63;;;5.07;;
49942;SDS011;36011;53.362;58.948;2023-11-21T01:30:10;8.60;;;4.88;;
49942;SDS011;36011;53.362;58.948;2023-11-21T01:33:11;8.00;;;4.53;;
49942;SDS011;36011;53.362;58.948;2023-11-21T01:36:16;7.20;;;4.05;;
49942;SDS011;36011;53.362;58.948;2023-11-21T01:39:18;7.47;;;4.07;;
49942;SDS011;36011;53.362;58.948;2023-11-21T01:42:24;8.98;;;4.55;;
49942;SDS011;36011;53.362;58.948;2023-11-21T01:45:26;10.40;;;4.38;;
49942;SDS011;36011;53.362;58.948;2023-11-21T01:48:34;8.88;;;4.75;;
49942;SDS011;36011;53.362;58.948;2023-11-21T01:51:40;12.48;;;4.55;;
49942;SDS011;36011;53.362;58.948;2023-11-21T01:54:44;9.23;;;4.65;;
49942;SDS011;36011;53.362;58.948;2023-11-21T01:57:51;11.73;;;5.35;;
49942;SDS011;36011;53.362;58.948;2023-11-21T02:00:56;9.95;;;5.32;;
49942;SDS011;36011;53.362;58.948;2023-11-21T02:03:57;9.30;;;4.88;;
49942;SDS011;36011;53.362;58.948;2023-11-21T02:06:59;9.52;;;4.07;;
49942;SDS011;36011;53.362;58.948;2023-11-21T02:10:01;10.18;;;4.82;;
49942;SDS011;36011;53.362;58.948;2023-11-21T02:16:07;9.32;;;4.97;;
49942;SDS011;36011;53.362;58.948;2023-11-21T02:19:12;8.13;;;4.72;;
49942;SDS011;36011;53.362;58.948;2023-11-21T02:22:22;10.52;;;5.03;;
49942;SDS011;36011;53.362;58.948;2023-11-21T02:25:33;8.20;;;4.72;;
49942;SDS011;36011;53.362;58.948;2023-11-21T02:28:35;11.82;;;6.00;;
49942;SDS011;36011;53.362;58.948;2023-11-21T02:31:40;12.57;;;5.78;;
49942;SDS011;36011;53.362;58.948;2023-11-21T02:34:53;10.25;;;4.93;;
49942;SDS011;36011;53.362;58.948;2023-11-21T02:37:58;10.27;;;4.35;;
49942;SDS011;36011;53.362;58.948;2023-11-21T02:41:05;11.27;;;5.68;;
49942;SDS011;36011;53.362;58.948;2023-11-21T02:44:09;14.95;;;5.32;;
49942;SDS011;36011;53.362;58.948;2023-11-21T02:47:15;18.13;;;6.03;;
49942;SDS011;36011;53.362;58.948;2023-11-21T02:50:19;17.00;;;6.78;;
49942;SDS011;36011;53.362;58.948;2023-11-21T02:53:21;17.48;;;7.82;;
49942;SDS011;36011;53.362;58.948;2023-11-21T02:56:25;23.48;;;8.35;;
49942;SDS011;36011;53.362;58.948;2023-11-21T02:59:27;15.55;;;7.45;;
49942;SDS011;36011;53.362;58.948;2023-11-21T03:02:29;10.85;;;5.60;;
49942;SDS011;36011;53.362;58.948;2023-11-21T03:05:33;16.15;;;6.40;;
49942;SDS011;36011;53.362;58.948;2023-11-21T03:08:39;18.27;;;7.82;;
49942;SDS011;36011;53.362;58.948;2023-11-21T03:11:42;21.42;;;8.55;;
49942;SDS011;36011;53.362;58.948;2023-11-21T03:14:43;24.83;;;10.73;;
49942;SDS011;36011;53.362;58.948;2023-11-21T03:17:48;19.88;;;9.95;;
49942;SDS011;36011;53.362;58.948;2023-11-21T03:20:51;30.40;;;12.38;;
49942;SDS011;36011;53.362;58.948;2023-11-21T03:23:56;17.60;;;8.73;;
49942;SDS011;36011;53.362;58.948;2023-11-21T03:27:01;22.13;;;9.13;;
49942;SDS011;36011;53.362;58.948;2023-11-21T03:30:02;20.30;;;8.38;;
49942;SDS011;36011;53.362;58.948;2023-11-21T03:33:05;19.60;;;8.70;;
49942;SDS011;36011;53.362;58.948;2023-11-21T03:36:07;14.85;;;7.40;;
49942;SDS011;36011;53.362;58.948;2023-11-21T03:39:09;9.00;;;5.22;;
49942;SDS011;36011;53.362;58.948;2023-11-21T03:42:15;19.65;;;7.68;;
49942;SDS011;36011;53.362;58.948;2023-11-21T03:45:22;22.00;;;10.02;;
49942;SDS011;36011;53.362;58.948;2023-11-21T03:48:23;15.23;;;7.32;;
49942;SDS011;36011;53.362;58.948;2023-11-21T03:51:31;17.63;;;8.75;;
49942;SDS011;36011;53.362;58.948;2023-11-21T03:54:33;25.80;;;10.82;;
49942;SDS011;36011;53.362;58.948;2023-11-21T03:57:35;28.38;;;13.15;;
49942;SDS011;36011;53.362;58.948;2023-11-21T04:00:39;24.67;;;9.48;;
49942;SDS011;36011;53.362;58.948;2023-11-21T04:03:40;19.65;;;7.78;;
49942;SDS011;36011;53.362;58.948;2023-11-21T04:06:46;15.27;;;6.47;;
49942;SDS011;36011;53.362;58.948;2023-11-21T04:09:48;15.05;;;7.28;;
49942;SDS011;36011;53.362;58.948;2023-11-21T04:12:52;22.45;;;10.77;;
49942;SDS011;36011;53.362;58.948;2023-11-21T04:15:54;18.15;;;8.77;;
49942;SDS011;36011;53.362;58.948;2023-11-21T04:18:58;22.80;;;8.60;;
49942;SDS011;36011;53.362;58.948;2023-11-21T04:22:02;23.90;;;8.55;;
49942;SDS011;36011;53.362;58.948;2023-11-21T04:25:08;21.20;;;9.52;;
49942;SDS011;36011;53.362;58.948;2023-11-21T04:28:16;23.40;;;9.88;;
49942;SDS011;36011;53.362;58.948;2023-11-21T04:31:20;29.75;;;13.52;;
49942;SDS011;36011;53.362;58.948;2023-11-21T04:34:24;24.35;;;11.43;;
49942;SDS011;36011;53.362;58.948;2023-11-21T04:37:25;31.92;;;14.85;;
49942;SDS011;36011;53.362;58.948;2023-11-21T04:40:27;20.77;;;11.13;;
49942;SDS011;36011;53.362;58.948;2023-11-21T04:43:34;19.77;;;10.65;;
49942;SDS011;36011;53.362;58.948;2023-11-21T04:46:37;22.33;;;11.02;;
49942;SDS011;36011;53.362;58.948;2023-11-21T04:49:41;21.90;;;12.18;;
49942;SDS011;36011;53.362;58.948;2023-11-21T04:52:48;21.70;;;11.88;;
49942;SDS011;36011;53.362;58.948;2023-11-21T04:55:51;24.27;;;13.20;;
49942;SDS011;36011;53.362;58.948;2023-11-21T04:58:54;11.20;;;6.78;;
49942;SDS011;36011;53.362;58.948;2023-11-21T05:02:01;20.65;;;10.23;;
49942;SDS011;36011;53.362;58.948;2023-11-21T05:05:03;17.50;;;9.88;;
49942;SDS011;36011;53.362;58.948;2023-11-21T05:08:08;21.67;;;9.77;;
49942;SDS011;36011;53.362;58.948;2023-11-21T05:11:22;18.20;;;8.98;;
49942;SDS011;36011;53.362;58.948;2023-11-21T05:14:28;17.88;;;8.73;;
49942;SDS011;36011;53.362;58.948;2023-11-21T05:17:33;25.02;;;11.40;;
49942;SDS011;36011;53.362;58.948;2023-11-21T05:20:37;15.18;;;7.93;;
49942;SDS011;36011;53.362;58.948;2023-11-21T05:23:39;13.25;;;8.40;;
49942;SDS011;36011;53.362;58.948;2023-11-21T05:26:41;12.52;;;7.90;;
49942;SDS011;36011;53.362;58.948;2023-11-21T05:32:46;13.10;;;7.53;;
49942;SDS011;36011;53.362;58.948;2023-11-21T05:35:53;14.40;;;7.80;;
49942;SDS011;36011;53.362;58.948;2023-11-21T05:38:56;14.88;;;7.15;;
49942;SDS011;36011;53.362;58.948;2023-11-21T05:42:00;13.55;;;6.63;;
49942;SDS011;36011;53.362;58.948;2023-11-21T05:45:07;12.90;;;5.07;;
49942;SDS011;36011;53.362;58.948;2023-11-21T05:48:15;7.55;;;4.80;;
49942;SDS011;36011;53.362;58.948;2023-11-21T05:51:19;9.63;;;5.15;;
49942;SDS011;36011;53.362;58.948;2023-11-21T05:54:22;8.85;;;4.80;;
49942;SDS011;36011;53.362;58.948;2023-11-21T05:57:27;7.82;;;4.75;;
49942;SDS011;36011;53.362;58.948;2023-11-21T06:00:29;8.70;;;4.65;;
49942;SDS011;36011;53.362;58.948;2023-11-21T06:03:34;8.27;;;4.90;;
49942;SDS011;36011;53.362;58.948;2023-11-21T06:06:39;7.80;;;4.15;;
49942;SDS011;36011;53.362;58.948;2023-11-21T06:09:40;9.10;;;5.05;;
49942;SDS011;36011;53.362;58.948;2023-11-21T06:12:44;7.75;;;4.60;;
49942;SDS011;36011;53.362;58.948;2023-11-21T06:15:48;12.40;;;4.10;;
49942;SDS011;36011;53.362;58.948;2023-11-21T06:18:52;9.27;;;5.00;;
49942;SDS011;36011;53.362;58.948;2023-11-21T06:21:54;8.98;;;4.07;;
49942;SDS011;36011;53.362;58.948;2023-11-21T06:24:56;14.23;;;4.78;;
49942;SDS011;36011;53.362;58.948;2023-11-21T06:27:57;9.15;;;4.80;;
49942;SDS011;36011;53.362;58.948;2023-11-21T06:31:04;12.35;;;5.00;;
49942;SDS011;36011;53.362;58.948;2023-11-21T06:34:08;10.43;;;4.88;;
49942;SDS011;36011;53.362;58.948;2023-11-21T06:37:10;8.80;;;5.15;;
49942;SDS011;36011;53.362;58.948;2023-11-21T06:40:18;8.35;;;4.72;;
49942;SDS011;36011;53.362;58.948;2023-11-21T06:43:22;9.25;;;4.20;;
49942;SDS011;36011;53.362;58.948;2023-11-21T06:46:30;10.35;;;4.22;;
49942;SDS011;36011;53.362;58.948;2023-11-21T06:49:36;9.45;;;4.25;;
49942;SDS011;36011;53.362;58.948;2023-11-21T06:52:44;7.40;;;4.32;;
49942;SDS011;36011;53.362;58.948;2023-11-21T06:55:49;9.30;;;4.07;;
49942;SDS011;36011;53.362;58.948;2023-11-21T06:58:51;9.02;;;4.60;;
49942;SDS011;36011;53.362;58.948;2023-11-21T07:01:54;7.00;;;4.15;;
49942;SDS011;36011;53.362;58.948;2023-11-21T07:04:58;10.93;;;5.85;;
49942;SDS011;36011;53.362;58.948;2023-11-21T07:08:02;7.35;;;4.35;;
49942;SDS011;36011;53.362;58.948;2023-11-21T07:11:07;10.27;;;4.18;;
49942;SDS011;36011;53.362;58.948;2023-11-21T07:14:12;7.90;;;4.63;;
49942;SDS011;36011;53.362;58.948;2023-11-21T07:17:20;9.60;;;4.22;;
49942;SDS011;36011;53.362;58.948;2023-11-21T07:20:24;15.90;;;4.20;;
49942;SDS011;36011;53.362;58.948;2023-11-21T07:23:25;13.35;;;4.70;;
49942;SDS011;36011;53.362;58.948;2023-11-21T07:26:27;10.60;;;4.97;;
49942;SDS011;36011;53.362;58.948;2023-11-21T07:29:30;32.58;;;15.05;;
49942;SDS011;36011;53.362;58.948;2023-11-21T07:32:31;9.32;;;4.43;;
49942;SDS011;36011;53.362;58.948;2023-11-21T07:35:33;7.75;;;4.40;;
49942;SDS011;36011;53.362;58.948;2023-11-21T07:38:35;9.55;;;4.35;;
49942;SDS011;36011;53.362;58.948;2023-11-21T07:41:39;9.07;;;4.22;;
49942;SDS011;36011;53.362;58.948;2023-11-21T07:44:48;9.32;;;4.30;;
49942;SDS011;36011;53.362;58.948;2023-11-21T07:47:57;9.07;;;3.80;;
49942;SDS011;36011;53.362;58.948;2023-11-21T07:51:07;11.75;;;4.75;;
49942;SDS011;36011;53.362;58.948;2023-11-21T07:54:14;7.05;;;3.88;;
49942;SDS011;36011;53.362;58.948;2023-11-21T07:57:18;12.48;;;4.30;;
49942;SDS011;36011;53.362;58.948;2023-11-21T08:00:25;23.38;;;7.35;;
49942;SDS011;36011;53.362;58.948;2023-11-21T08:03:33;9.38;;;4.35;;
49942;SDS011;36011;53.362;58.948;2023-11-21T08:06:37;6.13;;;4.10;;
49942;SDS011;36011;53.362;58.948;2023-11-21T08:09:38;10.05;;;5.22;;
49942;SDS011;36011;53.362;58.948;2023-11-21T08:12:42;16.05;;;5.28;;
49942;SDS011;36011;53.362;58.948;2023-11-21T08:15:44;12.82;;;4.32;;
49942;SDS011;36011;53.362;58.948;2023-11-21T08:18:48;9.52;;;4.90;;
49942;SDS011;36011;53.362;58.948;2023-11-21T08:21:52;11.23;;;4.85;;
49942;SDS011;36011;53.362;58.948;2023-11-21T08:24:57;11.30;;;5.25;;
49942;SDS011;36011;53.362;58.948;2023-11-21T08:27:59;11.52;;;6.05;;
49942;SDS011;36011;53.362;58.948;2023-11-21T08:31:03;10.23;;;5.55;;
49942;SDS011;36011;53.362;58.948;2023-11-21T08:34:05;11.75;;;5.47;;
49942;SDS011;36011;53.362;58.948;2023-11-21T08:37:09;18.15;;;8.30;;
49942;SDS011;36011;53.362;58.948;2023-11-21T08:40:13;16.13;;;8.10;;
49942;SDS011;36011;53.362;58.948;2023-11-21T08:43:21;18.30;;;8.23;;
49942;SDS011;36011;53.362;58.948;2023-11-21T08:46:23;14.55;;;6.50;;
49942;SDS011;36011;53.362;58.948;2023-11-21T08:49:26;14.13;;;7.95;;
49942;SDS011;36011;53.362;58.948;2023-11-21T08:52:33;29.20;;;15.50;;
49942;SDS011;36011;53.362;58.948;2023-11-21T08:55:35;43.28;;;21.27;;
49942;SDS011;36011;53.362;58.948;2023-11-21T08:58:38;33.53;;;18.47;;
49942;SDS011;36011;53.362;58.948;2023-11-21T09:01:39;32.80;;;16.42;;
49942;SDS011;36011;53.362;58.948;2023-11-21T09:04:41;36.08;;;16.70;;
49942;SDS011;36011;53.362;58.948;2023-11-21T09:07:44;30.42;;;17.48;;
49942;SDS011;36011;53.362;58.948;2023-11-21T09:10:47;29.23;;;16.70;;
49942;SDS011;36011;53.362;58.948;2023-11-21T09:13:51;29.95;;;17.95;;
49942;SDS011;36011;53.362;58.948;2023-11-21T09:16:57;38.25;;;18.15;;
49942;SDS011;36011;53.362;58.948;2023-11-21T09:23:07;35.67;;;16.38;;
49942;SDS011;36011;53.362;58.948;2023-11-21T09:26:14;37.60;;;17.80;;
49942;SDS011;36011;53.362;58.948;2023-11-21T09:29:17;31.37;;;12.47;;
49942;SDS011;36011;53.362;58.948;2023-11-21T09:32:22;35.13;;;16.75;;
49942;SDS011;36011;53.362;58.948;2023-11-21T09:35:26;37.67;;;15.68;;
49942;SDS011;36011;53.362;58.948;2023-11-21T09:38:28;34.95;;;16.35;;
49942;SDS011;36011;53.362;58.948;2023-11-21T09:42:13;40.03;;;17.80;;
49942;SDS011;36011;53.362;58.948;2023-11-21T09:45:35;38.72;;;17.05;;
49942;SDS011;36011;53.362;58.948;2023-11-21T09:48:32;34.65;;;17.17;;
49942;SDS011;36011;53.362;58.948;2023-11-21T09:51:42;37.90;;;17.75;;
49942;SDS011;36011;53.362;58.948;2023-11-21T09:54:47;38.33;;;17.52;;
49942;SDS011;36011;53.362;58.948;2023-11-21T09:57:55;43.53;;;17.85;;
49942;SDS011;36011;53.362;58.948;2023-11-21T10:00:57;44.67;;;18.17;;
49942;SDS011;36011;53.362;58.948;2023-11-21T10:04:04;33.83;;;19.00;;
49942;SDS011;36011;53.362;58.948;2023-11-21T10:07:09;32.65;;;18.65;;
49942;SDS011;36011;53.362;58.948;2023-11-21T10:10:11;42.15;;;19.35;;
49942;SDS011;36011;53.362;58.948;2023-11-21T10:13:20;41.17;;;18.70;;
49942;SDS011;36011;53.362;58.948;2023-11-21T10:16:22;32.17;;;18.67;;
49942;SDS011;36011;53.362;58.948;2023-11-21T10:19:28;34.67;;;19.92;;
49942;SDS011;36011;53.362;58.948;2023-11-21T10:22:38;36.78;;;18.42;;
49942;SDS011;36011;53.362;58.948;2023-11-21T10:25:45;38.88;;;19.83;;
49942;SDS011;36011;53.362;58.948;2023-11-21T10:28:56;38.08;;;20.25;;
49942;SDS011;36011;53.362;58.948;2023-11-21T10:32:02;35.00;;;18.38;;
49942;SDS011;36011;53.362;58.948;2023-11-21T10:35:10;33.20;;;16.15;;
49942;SDS011;36011;53.362;58.948;2023-11-21T10:38:19;35.08;;;16.15;;
49942;SDS011;36011;53.362;58.948;2023-11-21T10:41:25;35.72;;;17.65;;
49942;SDS011;36011;53.362;58.948;2023-11-21T10:44:32;32.75;;;17.33;;
49942;SDS011;36011;53.362;58.948;2023-11-21T10:47:34;30.55;;;16.10;;
49942;SDS011;36011;53.362;58.948;2023-11-21T10:50:38;33.03;;;15.95;;
49942;SDS011;36011;53.362;58.948;2023-11-21T10:53:40;25.17;;;12.77;;
49942;SDS011;36011;53.362;58.948;2023-11-21T10:57:00;24.52;;;12.23;;
49942;SDS011;36011;53.362;58.948;2023-11-21T11:00:04;32.83;;;15.18;;
49942;SDS011;36011;53.362;58.948;2023-11-21T11:03:09;23.65;;;13.10;;
49942;SDS011;36011;53.362;58.948;2023-11-21T11:06:15;21.48;;;11.65;;
49942;SDS011;36011;53.362;58.948;2023-11-21T11:09:22;18.40;;;8.55;;
49942;SDS011;36011;53.362;58.948;2023-11-21T11:12:27;13.90;;;8.80;;
49942;SDS011;36011;53.362;58.948;2023-11-21T11:15:34;12.82;;;6.80;;
49942;SDS011;36011;53.362;58.948;2023-11-21T11:18:41;14.43;;;7.97;;
49942;SDS011;36011;53.362;58.948;2023-11-21T11:21:46;15.05;;;7.47;;
49942;SDS011;36011;53.362;58.948;2023-11-21T11:28:27;18.10;;;7.55;;
49942;SDS011;36011;53.362;58.948;2023-11-21T11:31:44;7.65;;;4.65;;
49942;SDS011;36011;53.362;58.948;2023-11-21T11:38:32;18.05;;;8.32;;
49942;SDS011;36011;53.362;58.948;2023-11-21T11:41:35;17.13;;;9.35;;
49942;SDS011;36011;53.362;58.948;2023-11-21T11:47:57;20.25;;;7.32;;
49942;SDS011;36011;53.362;58.948;2023-11-21T11:51:12;10.57;;;4.65;;
49942;SDS011;36011;53.362;58.948;2023-11-21T11:54:34;9.90;;;5.50;;
49942;SDS011;36011;53.362;58.948;2023-11-21T11:57:40;14.40;;;5.35;;
49942;SDS011;36011;53.362;58.948;2023-11-21T12:00:45;12.57;;;5.25;;
49942;SDS011;36011;53.362;58.948;2023-11-21T12:07:20;15.48;;;7.15;;
49942;SDS011;36011;53.362;58.948;2023-11-21T12:10:25;20.70;;;8.20;;
49942;SDS011;36011;53.362;58.948;2023-11-21T12:13:47;15.10;;;6.10;;
49942;SDS011;36011;53.362;58.948;2023-11-21T12:16:56;11.10;;;6.53;;
49942;SDS011;36011;53.362;58.948;2023-11-21T12:20:02;15.60;;;6.05;;
49942;SDS011;36011;53.362;58.948;2023-11-21T12:23:08;14.75;;;7.00;;
49942;SDS011;36011;53.362;58.948;2023-11-21T12:26:13;13.35;;;7.28;;
49942;SDS011;36011;53.362;58.948;2023-11-21T12:29:20;21.80;;;7.78;;
49942;SDS011;36011;53.362;58.948;2023-11-21T12:32:24;15.57;;;7.00;;
49942;SDS011;36011;53.362;58.948;2023-11-21T12:35:29;15.70;;;7.18;;
49942;SDS011;36011;53.362;58.948;2023-11-21T12:38:38;15.13;;;7.20;;
49942;SDS011;36011;53.362;58.948;2023-11-21T12:41:40;13.10;;;7.22;;
49942;SDS011;36011;53.362;58.948;2023-11-21T12:44:46;10.90;;;6.47;;
49942;SDS011;36011;53.362;58.948;2023-11-21T12:48:08;14.48;;;5.75;;
49942;SDS011;36011;53.362;58.948;2023-11-21T12:51:15;15.73;;;6.18;;
49942;SDS011;36011;53.362;58.948;2023-11-21T12:54:17;13.45;;;5.97;;
49942;SDS011;36011;53.362;58.948;2023-11-21T12:57:25;10.50;;;5.18;;
49942;SDS011;36011;53.362;58.948;2023-11-21T13:00:32;11.13;;;5.47;;
49942;SDS011;36011;53.362;58.948;2023-11-21T13:03:39;11.40;;;4.82;;
49942;SDS011;36011;53.362;58.948;2023-11-21T13:06:41;9.00;;;5.23;;
49942;SDS011;36011;53.362;58.948;2023-11-21T13:09:43;10.35;;;5.53;;
49942;SDS011;36011;53.362;58.948;2023-11-21T13:12:45;13.00;;;6.55;;
49942;SDS011;36011;53.362;58.948;2023-11-21T13:16:02;14.95;;;6.10;;
49942;SDS011;36011;53.362;58.948;2023-11-21T13:19:09;16.42;;;7.38;;
49942;SDS011;36011;53.362;58.948;2023-11-21T13:22:14;16.73;;;8.00;;
49942;SDS011;36011;53.362;58.948;2023-11-21T13:25:19;17.92;;;8.23;;
49942;SDS011;36011;53.362;58.948;2023-11-21T13:28:30;26.05;;;8.75;;
49942;SDS011;36011;53.362;58.948;2023-11-21T13:31:40;15.73;;;6.72;;
49942;SDS011;36011;53.362;58.948;2023-11-21T13:34:43;14.73;;;6.88;;
49942;SDS011;36011;53.362;58.948;2023-11-21T13:37:48;16.13;;;5.78;;
49942;SDS011;36011;53.362;58.948;2023-11-21T13:40:53;14.52;;;6.38;;
49942;SDS011;36011;53.362;58.948;2023-11-21T13:44:02;13.20;;;5.65;;
49942;SDS011;36011;53.362;58.948;2023-11-21T13:47:20;12.10;;;6.65;;
49942;SDS011;36011;53.362;58.948;2023-11-21T13:50:32;14.93;;;6.30;;
49942;SDS011;36011;53.362;58.948;2023-11-21T13:53:35;10.85;;;5.47;;
49942;SDS011;36011;53.362;58.948;2023-11-21T13:56:42;16.42;;;7.07;;
49942;SDS011;36011;53.362;58.948;2023-11-21T13:59:51;10.93;;;5.10;;
49942;SDS011;36011;53.362;58.948;2023-11-21T14:02:53;18.00;;;7.43;;
49942;SDS011;36011;53.362;58.948;2023-11-21T14:06:01;11.88;;;6.85;;
49942;SDS011;36011;53.362;58.948;2023-11-21T14:09:12;14.07;;;6.65;;
49942;SDS011;36011;53.362;58.948;2023-11-21T14:12:14;11.80;;;7.07;;
49942;SDS011;36011;53.362;58.948;2023-11-21T14:15:21;16.70;;;6.88;;
49942;SDS011;36011;53.362;58.948;2023-11-21T14:18:26;17.10;;;7.38;;
49942;SDS011;36011;53.362;58.948;2023-11-21T14:21:34;11.65;;;6.53;;
49942;SDS011;36011;53.362;58.948;2023-11-21T14:24:41;15.25;;;7.20;;
49942;SDS011;36011;53.362;58.948;2023-11-21T14:27:45;16.75;;;7.63;;
49942;SDS011;36011;53.362;58.948;2023-11-21T14:30:49;15.10;;;7.60;;
49942;SDS011;36011;53.362;58.948;2023-11-21T14:33:53;18.13;;;8.25;;
49942;SDS011;36011;53.362;58.948;2023-11-21T14:37:01;11.32;;;6.47;;
49942;SDS011;36011;53.362;58.948;2023-11-21T14:40:12;14.90;;;6.70;;
49942;SDS011;36011;53.362;58.948;2023-11-21T14:43:17;14.98;;;5.53;;
49942;SDS011;36011;53.362;58.948;2023-11-21T14:46:20;10.60;;;6.03;;
49942;SDS011;36011;53.362;58.948;2023-11-21T14:49:24;11.82;;;5.47;;
49942;SDS011;36011;53.362;58.948;2023-11-21T14:52:29;10.98;;;6.28;;
49942;SDS011;36011;53.362;58.948;2023-11-21T14:55:39;13.68;;;7.00;;
49942;SDS011;36011;53.362;58.948;2023-11-21T14:58:50;8.20;;;5.40;;
49942;SDS011;36011;53.362;58.948;2023-11-21T15:01:54;10.27;;;5.88;;
49942;SDS011;36011;53.362;58.948;2023-11-21T15:05:02;17.45;;;8.50;;
49942;SDS011;36011;53.362;58.948;2023-11-21T15:08:09;10.38;;;5.80;;
49942;SDS011;36011;53.362;58.948;2023-11-21T15:11:27;9.80;;;5.30;;
49942;SDS011;36011;53.362;58.948;2023-11-21T15:14:31;11.75;;;5.25;;
49942;SDS011;36011;53.362;58.948;2023-11-21T15:17:37;13.00;;;5.45;;
49942;SDS011;36011;53.362;58.948;2023-11-21T15:20:40;13.25;;;6.00;;
49942;SDS011;36011;53.362;58.948;2023-11-21T15:23:47;10.55;;;5.38;;
49942;SDS011;36011;53.362;58.948;2023-11-21T15:26:49;9.90;;;5.25;;
49942;SDS011;36011;53.362;58.948;2023-11-21T15:29:53;13.00;;;5.63;;
49942;SDS011;36011;53.362;58.948;2023-11-21T15:32:55;12.63;;;7.43;;
49942;SDS011;36011;53.362;58.948;2023-11-21T15:36:01;11.77;;;5.75;;
49942;SDS011;36011;53.362;58.948;2023-11-21T15:39:06;13.50;;;6.38;;
49942;SDS011;36011;53.362;58.948;2023-11-21T15:42:13;12.05;;;6.38;;
49942;SDS011;36011;53.362;58.948;2023-11-21T15:45:17;9.80;;;5.25;;
49942;SDS011;36011;53.362;58.948;2023-11-21T15:48:28;10.63;;;5.53;;
49942;SDS011;36011;53.362;58.948;2023-11-21T15:51:33;9.02;;;5.18;;
49942;SDS011;36011;53.362;58.948;2023-11-21T15:54:41;8.27;;;5.78;;
49942;SDS011;36011;53.362;58.948;2023-11-21T15:57:49;15.65;;;5.55;;
49942;SDS011;36011;53.362;58.948;2023-11-21T16:00:53;16.38;;;7.05;;
49942;SDS011;36011;53.362;58.948;2023-11-21T16:04:00;13.57;;;6.93;;
49942;SDS011;36011;53.362;58.948;2023-11-21T16:07:04;15.13;;;6.82;;
49942;SDS011;36011;53.362;58.948;2023-11-21T16:10:12;14.88;;;7.63;;
49942;SDS011;36011;53.362;58.948;2023-11-21T16:13:19;15.68;;;7.65;;
49942;SDS011;36011;53.362;58.948;2023-11-21T16:16:23;17.77;;;8.90;;
49942;SDS011;36011;53.362;58.948;2023-11-21T16:19:28;14.00;;;8.48;;
49942;SDS011;36011;53.362;58.948;2023-11-21T16:22:30;18.17;;;9.13;;
49942;SDS011;36011;53.362;58.948;2023-11-21T16:25:34;22.92;;;9.88;;
49942;SDS011;36011;53.362;58.948;2023-11-21T16:28:43;16.35;;;8.27;;
49942;SDS011;36011;53.362;58.948;2023-11-21T16:31:50;22.17;;;12.07;;
49942;SDS011;36011;53.362;58.948;2023-11-21T16:34:53;23.08;;;12.70;;
49942;SDS011;36011;53.362;58.948;2023-11-21T16:37:58;22.17;;;10.88;;
49942;SDS011;36011;53.362;58.948;2023-11-21T16:40:59;24.92;;;11.88;;
49942;SDS011;36011;53.362;58.948;2023-11-21T16:44:12;21.13;;;11.32;;
49942;SDS011;36011;53.362;58.948;2023-11-21T16:47:28;21.67;;;12.43;;
49942;SDS011;36011;53.362;58.948;2023-11-21T16:50:32;21.40;;;12.02;;
49942;SDS011;36011;53.362;58.948;2023-11-21T16:53:37;28.30;;;16.15;;
49942;SDS011;36011;53.362;58.948;2023-11-21T16:56:45;29.35;;;16.48;;
49942;SDS011;36011;53.362;58.948;2023-11-21T16:59:50;33.38;;;19.35;;
49942;SDS011;36011;53.362;58.948;2023-11-21T17:02:58;28.33;;;17.23;;
49942;SDS011;36011;53.362;58.948;2023-11-21T17:06:01;34.10;;;19.08;;
49942;SDS011;36011;53.362;58.948;2023-11-21T17:09:08;28.38;;;16.08;;
49942;SDS011;36011;53.362;58.948;2023-11-21T17:12:15;32.88;;;18.13;;
49942;SDS011;36011;53.362;58.948;2023-11-21T17:15:17;32.03;;;15.35;;
49942;SDS011;36011;53.362;58.948;2023-11-21T17:18:19;32.92;;;13.70;;
49942;SDS011;36011;53.362;58.948;2023-11-21T17:21:23;22.33;;;11.07;;
49942;SDS011;36011;53.362;58.948;2023-11-21T17:24:26;17.85;;;9.20;;
49942;SDS011;36011;53.362;58.948;2023-11-21T17:27:28;14.63;;;8.13;;
49942;SDS011;36011;53.362;58.948;2023-11-21T17:30:31;20.13;;;8.13;;
49942;SDS011;36011;53.362;58.948;2023-11-21T17:33:35;17.25;;;7.80;;
49942;SDS011;36011;53.362;58.948;2023-11-21T17:36:42;11.43;;;5.82;;
49942;SDS011;36011;53.362;58.948;2023-11-21T17:39:48;12.88;;;6.38;;
49942;SDS011;36011;53.362;58.948;2023-11-21T17:42:55;15.73;;;6.63;;
49942;SDS011;36011;53.362;58.948;2023-11-21T17:45:59;14.85;;;6.43;;
49942;SDS011;36011;53.362;58.948;2023-11-21T17:49:01;13.75;;;6.88;;
49942;SDS011;36011;53.362;58.948;2023-11-21T17:52:05;16.33;;;7.03;;
49942;SDS011;36011;53.362;58.948;2023-11-21T17:55:12;14.57;;;7.13;;
49942;SDS011;36011;53.362;58.948;2023-11-21T17:58:16;18.20;;;7.70;;
49942;SDS011;36011;53.362;58.948;2023-11-21T18:04:22;21.38;;;9.55;;
49942;SDS011;36011;53.362;58.948;2023-11-21T18:07:24;22.00;;;11.52;;
49942;SDS011;36011;53.362;58.948;2023-11-21T18:10:28;16.63;;;9.32;;
49942;SDS011;36011;53.362;58.948;2023-11-21T18:13:31;26.27;;;12.90;;
49942;SDS011;36011;53.362;58.948;2023-11-21T18:16:33;23.65;;;13.45;;
49942;SDS011;36011;53.362;58.948;2023-11-21T18:19:34;36.67;;;16.23;;
49942;SDS011;36011;53.362;58.948;2023-11-21T18:22:40;34.08;;;17.88;;
49942;SDS011;36011;53.362;58.948;2023-11-21T18:28:50;34.78;;;18.55;;
49942;SDS011;36011;53.362;58.948;2023-11-21T18:31:56;40.35;;;19.15;;